Brocton, IL

1:49 AM CDT on September 02, 2014 (GMT -0500)
Edgar County | Change Station
CLOSE
Current Station
Airport
Location: Paris,
Elevation: 653 ft
Nearby Weather Stations
Active Advisory: Flash Flood Watch

Elev 653 ft 39.70 °N, 87.67 °W | Updated 14 minutes ago

Thunderstorms and Rain
Thunderstorm Rain
68 °F
Feels Like 68 °F
N
0
Wind Variable Wind from North

Today
High -- | Low -- °F
--% Chance of Precip.
Yesterday
High -- | Low -- °F
Precip. -- in
6:19 AM 7:20 PM
Waxing Crescent, 48% visible
Pressure 29.95 in
Visibility 5.0 miles
Clouds Scattered Clouds 3800 ft
Mostly Cloudy 4700 ft
Overcast 6500 ft
Dew Point 66 °F
Humidity 96%
Rainfall 0.28 in
Snow Depth Not available.
UV 0 out of 12
Pollen 9.90 out of 12
Air Quality Not available.
Flu Activity Not available.
METAR KPRG 020635Z AUTO 00000KT 5SM TSRA SCT038 BKN047 OVC065 20/19 A2995 RMK AO2 LTG DSNT ALQS P0009 T01970191

More Conditions Fewer Conditions

Pressure 29.95 in
Visibility 5.0 miles
Clouds Scattered Clouds 3800 ft
Mostly Cloudy 4700 ft
Overcast 6500 ft
Dew Point 66 °F
Humidity 96%
Rainfall 0.28 in
Snow Depth Not available.
UV 0 out of 12
Pollen 9.90 out of 12
Air Quality Not available.
Flu Activity Not available.
METAR KPRG 020635Z AUTO 00000KT 5SM TSRA SCT038 BKN047 OVC065 20/19 A2995 RMK AO2 LTG DSNT ALQS P0009 T01970191

More Conditions Fewer Conditions

10-Day Weather Forecast

Almanac

Astronomy

Sep. 02, 2014 Rise Set
Actual Time 6:19 AM CDT 7:20 PM CDT
Civil Twilight 5:52 AM CDT 7:47 PM CDT
Nautical Twilight 5:19 AM CDT 8:20 PM CDT
Astronomical Twilight 4:45 AM CDT 8:54 PM CDT
Moon 2:02 PM CDT No Moon Set
Length of Visible Light 13h 55m
Length of Day
13h 00m
Tomorrow will be 2m 31s shorter.
Waxing Crescent, 48% of the Moon is Illuminated
Today
Waxing Crescent
Sep 2
First Quarter
Sep 8
Full
Sep 15
Last Quarter
Sep 24
New

Today's Extremes

State Highs State Lows

Community

WunderPhotos

Upload Photos

1,749,589 photos uploaded!

WunderBlogs® & News

Nearby

Snow Depth

Station Depth Elevation
No new snow has been reported.

Earthquake Activity

City Distance Mag. Time & Date
No recent earthquake activity has been reported nearby.
Minimum magnitude displayed is 2.5.

Coastal Water Temperatures

Place Temperature
No Stations Reporting

Nearby Weather Stations